Time;durP1;ratioP1;P1;durP2;ratioP2;P2;SDS_P1;SDS_P2;PMS_P1;PMS_P2;Temp;Humidity;BMP_temperature;BMP_pressure;BME280_temperature;BME280_humidity;BME280_pressure;Samples;Min_cycle;Max_cycle;Signal;HPM_P1;HPM_P2
2023/07/30 00:00:53;;;;;;;;;;;;;;;;;;1882480;28;7104;-62
2023/07/30 00:01:51;;;;;;;;;;;;;;;;;;1883375;28;7100;-61
2023/07/30 00:02:50;;;;;;;;;;;;;;;;;;1889465;28;7021;-62
2023/07/30 00:03:47;;;;;;;;;;;;;;;;;;1883980;28;7014;-61
2023/07/30 00:04:45;;;;;;;;;;;;;;;;;;1887165;28;7344;-61
2023/07/30 00:05:42;;;;;;;;;;;;;;;;;;1887335;28;7049;-61
2023/07/30 00:06:40;;;;;;;;;;;;;;;;;;1879335;28;7013;-61
2023/07/30 00:07:38;;;;;;;;;;;;;;;;;;1882043;28;8029;-63
2023/07/30 00:08:35;;;;;;;;;;;;;;;;;;1882168;28;7096;-61
2023/07/30 00:09:32;;;;;;;;;;;;;;;;;;1882154;28;7391;-61
2023/07/30 00:10:30;;;;;;;;;;;;;;;;;;1882269;28;7113;-61
2023/07/30 00:11:27;;;;;;;;;;;;;;;;;;1889164;28;7129;-61
2023/07/30 00:12:25;;;;;;;;;;;;;;;;;;1889699;28;7164;-61
2023/07/30 00:13:22;;;;;;;;;;;;;;;;;;1883012;28;7025;-61
2023/07/30 00:14:19;;;;;;;;;;;;;;;;;;1881727;28;7013;-61
2023/07/30 00:15:17;;;;;;;;;;;;;;;;;;1882124;28;7995;-61
2023/07/30 00:16:14;;;;;;;;;;;;;;;;;;1882432;28;7620;-61
2023/07/30 00:17:12;;;;;;;;;;;;;;;;;;1882369;28;7041;-62
2023/07/30 00:18:09;;;;;;;;;;;;;;;;;;1880615;28;7192;-61
2023/07/30 00:19:07;;;;;;;;;;;;;;;;;;1881936;28;7974;-61
2023/07/30 00:20:05;;;;;;;;;;;;;;;;;;1886451;28;7054;-61
2023/07/30 00:21:05;;;;;;;;;;;;;;;;;;1889542;28;9081;-61
2023/07/30 00:22:03;;;;;;;;;;;;;;;;;;1888663;28;7976;-61
2023/07/30 00:23:00;;;;;;;;;;;;;;;;;;1889194;28;8003;-61
2023/07/30 00:23:58;;;;;;;;;;;;;;;;;;1889448;28;7046;-61
2023/07/30 00:24:55;;;;;;;;;;;;;;;;;;1889456;28;7013;-61
2023/07/30 00:25:52;;;;;;;;;;;;;;;;;;1880596;28;7018;-62
2023/07/30 00:26:50;;;;;;;;;;;;;;;;;;1882252;28;7009;-61
2023/07/30 00:27:47;;;;;;;;;;;;;;;;;;1881285;28;7030;-61
2023/07/30 00:28:45;;;;;;;;;;;;;;;;;;1881895;28;7025;-61
2023/07/30 00:29:42;;;;;;;;;;;;;;;;;;1882086;28;8183;-61
2023/07/30 00:30:39;;;;;;;;;;;;;;;;;;1881486;28;7022;-61
2023/07/30 00:31:37;;;;;;;;;;;;;;;;;;1883339;28;7046;-61
2023/07/30 00:32:35;;;;;;;;;;;;;;;;;;1881688;28;8043;-62
2023/07/30 00:33:32;;;;;;;;;;;;;;;;;;1882391;28;7053;-62
2023/07/30 00:34:29;;;;;;;;;;;;;;;;;;1880595;28;7025;-61
2023/07/30 00:35:27;;;;;;;;;;;;;;;;;;1881822;28;7145;-61
2023/07/30 00:36:25;;;;;;;;;;;;;;;;;;1890800;28;7013;-62
2023/07/30 00:37:23;;;;;;;;;;;;;;;;;;1884204;28;8091;-61
2023/07/30 00:38:20;;;;;;;;;;;;;;;;;;1886104;28;7054;-62
2023/07/30 00:39:18;;;;;;;;;;;;;;;;;;1888813;28;7139;-61
2023/07/30 00:40:15;;;;;;;;;;;;;;;;;;1889775;28;7109;-61
2023/07/30 00:41:13;;;;;;;;;;;;;;;;;;1889001;28;8002;-61
2023/07/30 00:42:10;;;;;;;;;;;;;;;;;;1885383;28;8036;-61
2023/07/30 00:43:07;;;;;;;;;;;;;;;;;;1881756;28;8502;-61
2023/07/30 00:44:05;;;;;;;;;;;;;;;;;;1883548;28;7050;-61
2023/07/30 00:45:03;;;;;;;;;;;;;;;;;;1889481;28;7124;-61
2023/07/30 00:46:00;;;;;;;;;;;;;;;;;;1885074;28;8035;-61
2023/07/30 00:46:58;;;;;;;;;;;;;;;;;;1882641;28;7025;-61
2023/07/30 00:47:55;;;;;;;;;;;;;;;;;;1886453;28;7142;-61
2023/07/30 00:48:53;;;;;;;;;;;;;;;;;;1886929;28;7009;-61
2023/07/30 00:49:50;;;;;;;;;;;;;;;;;;1886885;28;8012;-61
2023/07/30 00:50:50;;;;;;;;;;;;;;;;;;1882001;28;7402;-61
2023/07/30 00:51:47;;;;;;;;;;;;;;;;;;1880310;28;8031;-61
2023/07/30 00:52:45;;;;;;;;;;;;;;;;;;1876415;28;7013;-62
2023/07/30 00:53:42;;;;;;;;;;;;;;;;;;1882612;28;7145;-61
2023/07/30 00:54:39;;;;;;;;;;;;;;;;;;1882116;28;7014;-62
2023/07/30 00:55:37;;;;;;;;;;;;;;;;;;1875530;28;7054;-62
2023/07/30 00:56:35;;;;;;;;;;;;;;;;;;1874851;28;7013;-61
2023/07/30 00:57:34;;;;;;;;;;;;;;;;;;1874818;28;7572;-61
2023/07/30 00:58:32;;;;;;;;;;;;;;;;;;1874699;28;8041;-61
2023/07/30 00:59:30;;;;;;;;;;;;;;;;;;1875351;28;7119;-61
2023/07/30 01:00:29;;;;;;;;;;;;;;;;;;1881950;28;7017;-61
2023/07/30 01:01:27;;;;;;;;;;;;;;;;;;1882141;28;8040;-61
2023/07/30 01:02:24;;;;;;;;;;;;;;;;;;1881439;28;8112;-61
2023/07/30 01:03:22;;;;;;;;;;;;;;;;;;1882215;28;8055;-61
2023/07/30 01:04:19;;;;;;;;;;;;;;;;;;1877927;28;8013;-61
2023/07/30 01:05:17;;;;;;;;;;;;;;;;;;1882035;28;7010;-61
2023/07/30 01:06:15;;;;;;;;;;;;;;;;;;1878927;28;7369;-61
2023/07/30 01:07:12;;;;;;;;;;;;;;;;;;1874799;28;7021;-61
2023/07/30 01:08:10;;;;;;;;;;;;;;;;;;1874849;28;7009;-61
2023/07/30 01:09:11;;;;;;;;;;;;;;;;;;1875121;28;7046;-61
2023/07/30 01:10:09;;;;;;;;;;;;;;;;;;1874424;28;8109;-61
2023/07/30 01:11:08;;;;;;;;;;;;;;;;;;1874570;28;7167;-61
2023/07/30 01:12:06;;;;;;;;;;;;;;;;;;1874404;28;7113;-62
2023/07/30 01:13:06;;;;;;;;;;;;;;;;;;1874616;28;7116;-61
2023/07/30 01:14:05;;;;;;;;;;;;;;;;;;1878117;28;7124;-61
2023/07/30 01:15:04;;;;;;;;;;;;;;;;;;1881989;28;7124;-61
2023/07/30 01:16:03;;;;;;;;;;;;;;;;;;1873573;28;7017;-62
2023/07/30 01:17:01;;;;;;;;;;;;;;;;;;1877983;28;7054;-62
2023/07/30 01:17:58;;;;;;;;;;;;;;;;;;1878533;28;8060;-62
2023/07/30 01:18:56;;;;;;;;;;;;;;;;;;1874420;28;7089;-61
2023/07/30 01:19:56;;;;;;;;;;;;;;;;;;1877212;28;7934;-61
2023/07/30 01:20:57;;;;;;;;;;;;;;;;;;1878240;28;8035;-61
2023/07/30 01:21:54;;;;;;;;;;;;;;;;;;1881901;28;8006;-62
2023/07/30 01:22:52;;;;;;;;;;;;;;;;;;1881232;28;7093;-61
2023/07/30 01:23:49;;;;;;;;;;;;;;;;;;1882641;28;7132;-61
2023/07/30 01:24:47;;;;;;;;;;;;;;;;;;1882095;28;7066;-62
2023/07/30 01:25:50;;;;;;;;;;;;;;;;;;1882478;28;7093;-61
2023/07/30 01:27:07;;;;;;;;;;;;;;;;;;1881772;28;7108;-62
2023/07/30 01:28:06;;;;;;;;;;;;;;;;;;1875222;28;7130;-61
2023/07/30 01:29:10;;;;;;;;;;;;;;;;;;1875147;28;7022;-61
2023/07/30 01:30:07;;;;;;;;;;;;;;;;;;1874508;28;7050;-61
2023/07/30 01:31:06;;;;;;;;;;;;;;;;;;1874928;28;8024;-61
2023/07/30 01:32:07;;;;;;;;;;;;;;;;;;1874623;28;7108;-61
2023/07/30 01:33:06;;;;;;;;;;;;;;;;;;1874640;28;7013;-62
2023/07/30 01:34:05;;;;;;;;;;;;;;;;;;1872431;28;8007;-62
2023/07/30 01:35:05;;;;;;;;;;;;;;;;;;1879610;28;7017;-61
2023/07/30 01:36:04;;;;;;;;;;;;;;;;;;1876917;28;7162;-61
2023/07/30 01:37:02;;;;;;;;;;;;;;;;;;1874839;28;8987;-62
2023/07/30 01:38:03;;;;;;;;;;;;;;;;;;1878183;28;7122;-61
2023/07/30 01:39:01;;;;;;;;;;;;;;;;;;1877435;28;7940;-62
2023/07/30 01:39:59;;;;;;;;;;;;;;;;;;1876207;28;7516;-62
2023/07/30 01:40:57;;;;;;;;;;;;;;;;;;1882027;28;8476;-61
2023/07/30 01:41:55;;;;;;;;;;;;;;;;;;1881332;28;7283;-61
2023/07/30 01:42:52;;;;;;;;;;;;;;;;;;1883221;28;7009;-62
2023/07/30 01:43:50;;;;;;;;;;;;;;;;;;1883933;28;7054;-61
2023/07/30 01:44:47;;;;;;;;;;;;;;;;;;1875652;28;8068;-61
2023/07/30 01:45:44;;;;;;;;;;;;;;;;;;1875582;28;7313;-61
2023/07/30 01:46:42;;;;;;;;;;;;;;;;;;1883000;28;7108;-64
2023/07/30 01:47:39;;;;;;;;;;;;;;;;;;1880032;28;8060;-63
2023/07/30 01:48:37;;;;;;;;;;;;;;;;;;1881184;28;8491;-63
2023/07/30 01:49:34;;;;;;;;;;;;;;;;;;1890040;28;7113;-63
2023/07/30 01:50:31;;;;;;;;;;;;;;;;;;1889684;28;8717;-63
2023/07/30 01:51:29;;;;;;;;;;;;;;;;;;1890301;28;8059;-63
2023/07/30 01:52:26;;;;;;;;;;;;;;;;;;1890397;28;7376;-63
2023/07/30 01:53:24;;;;;;;;;;;;;;;;;;1890151;28;7041;-62
2023/07/30 01:54:21;;;;;;;;;;;;;;;;;;1890650;28;7424;-63
2023/07/30 01:55:19;;;;;;;;;;;;;;;;;;1881988;28;7293;-63
2023/07/30 01:56:16;;;;;;;;;;;;;;;;;;1883052;28;7018;-63
2023/07/30 01:57:13;;;;;;;;;;;;;;;;;;1884207;28;7013;-63
2023/07/30 01:58:11;;;;;;;;;;;;;;;;;;1889748;28;7152;-63
2023/07/30 01:59:08;;;;;;;;;;;;;;;;;;1885100;28;7052;-63
2023/07/30 02:00:06;;;;;;;;;;;;;;;;;;1889358;28;7096;-63
2023/07/30 02:01:03;;;;;;;;;;;;;;;;;;1888967;28;7017;-63
2023/07/30 02:02:01;;;;;;;;;;;;;;;;;;1885657;28;7009;-63
2023/07/30 02:02:58;;;;;;;;;;;;;;;;;;1881793;28;7038;-63
2023/07/30 02:03:56;;;;;;;;;;;;;;;;;;1882433;28;8091;-63
2023/07/30 02:04:54;;;;;;;;;;;;;;;;;;1885278;28;7154;-63
2023/07/30 02:05:51;;;;;;;;;;;;;;;;;;1890321;28;7041;-63
2023/07/30 02:06:49;;;;;;;;;;;;;;;;;;1883714;28;7096;-63
2023/07/30 02:07:47;;;;;;;;;;;;;;;;;;1883039;28;7074;-63
2023/07/30 02:08:44;;;;;;;;;;;;;;;;;;1882629;28;7022;-63
2023/07/30 02:09:42;;;;;;;;;;;;;;;;;;1882906;28;8024;-63
2023/07/30 02:10:40;;;;;;;;;;;;;;;;;;1882995;28;7009;-63
2023/07/30 02:11:37;;;;;;;;;;;;;;;;;;1883114;28;7009;-63
2023/07/30 02:12:35;;;;;;;;;;;;;;;;;;1881949;28;7055;-62
2023/07/30 02:13:33;;;;;;;;;;;;;;;;;;1886449;28;7010;-63
2023/07/30 02:14:30;;;;;;;;;;;;;;;;;;1889945;28;7176;-63
2023/07/30 02:15:27;;;;;;;;;;;;;;;;;;1889786;28;8019;-63
2023/07/30 02:16:25;;;;;;;;;;;;;;;;;;1883044;28;7117;-63
2023/07/30 02:17:22;;;;;;;;;;;;;;;;;;1885495;28;7423;-63
2023/07/30 02:18:20;;;;;;;;;;;;;;;;;;1878955;28;7221;-63
2023/07/30 02:19:18;;;;;;;;;;;;;;;;;;1882539;28;8047;-63
2023/07/30 02:20:15;;;;;;;;;;;;;;;;;;1888393;28;7300;-63
2023/07/30 02:21:13;;;;;;;;;;;;;;;;;;1888800;28;7014;-63
2023/07/30 02:22:10;;;;;;;;;;;;;;;;;;1881456;28;7017;-63
2023/07/30 02:23:08;;;;;;;;;;;;;;;;;;1883115;28;8029;-62
2023/07/30 02:24:09;;;;;;;;;;;;;;;;;;1883294;28;8058;-63
2023/07/30 02:25:07;;;;;;;;;;;;;;;;;;1886018;28;7013;-63
2023/07/30 02:26:04;;;;;;;;;;;;;;;;;;1889963;28;7112;-63
2023/07/30 02:27:02;;;;;;;;;;;;;;;;;;1890149;28;7063;-63
2023/07/30 02:28:03;;;;;;;;;;;;;;;;;;1896713;28;7022;-63
2023/07/30 02:29:01;;;;;;;;;;;;;;;;;;1886382;28;7096;-63
2023/07/30 02:29:58;;;;;;;;;;;;;;;;;;1880983;28;8071;-63
2023/07/30 02:30:55;;;;;;;;;;;;;;;;;;1882851;28;8047;-63
2023/07/30 02:31:53;;;;;;;;;;;;;;;;;;1882064;28;7014;-63
2023/07/30 02:32:51;;;;;;;;;;;;;;;;;;1887487;28;7136;-63
2023/07/30 02:33:48;;;;;;;;;;;;;;;;;;1887405;28;7033;-63
2023/07/30 02:34:45;;;;;;;;;;;;;;;;;;1883105;28;9151;-63
2023/07/30 02:35:43;;;;;;;;;;;;;;;;;;1883216;28;7021;-62
2023/07/30 02:36:40;;;;;;;;;;;;;;;;;;1887015;28;7018;-63
2023/07/30 02:37:38;;;;;;;;;;;;;;;;;;1888617;28;8058;-63
2023/07/30 02:38:35;;;;;;;;;;;;;;;;;;1890122;28;7112;-63
2023/07/30 02:39:33;;;;;;;;;;;;;;;;;;1882770;28;7029;-63
2023/07/30 02:40:30;;;;;;;;;;;;;;;;;;1888040;28;7155;-63
2023/07/30 02:41:28;;;;;;;;;;;;;;;;;;1890226;28;7013;-63
2023/07/30 02:42:25;;;;;;;;;;;;;;;;;;1889784;28;7054;-63
2023/07/30 02:43:23;;;;;;;;;;;;;;;;;;1883411;28;7113;-63
2023/07/30 02:44:20;;;;;;;;;;;;;;;;;;1886012;28;7186;-63
2023/07/30 02:45:17;;;;;;;;;;;;;;;;;;1885970;28;7085;-63
2023/07/30 02:46:15;;;;;;;;;;;;;;;;;;1886191;28;7021;-63
2023/07/30 02:47:12;;;;;;;;;;;;;;;;;;1883720;28;7236;-63
2023/07/30 02:48:10;;;;;;;;;;;;;;;;;;1884374;28;7026;-63
2023/07/30 02:49:08;;;;;;;;;;;;;;;;;;1889773;28;7009;-63
2023/07/30 02:50:06;;;;;;;;;;;;;;;;;;1889687;28;8106;-63
2023/07/30 02:51:03;;;;;;;;;;;;;;;;;;1889757;28;7045;-63
2023/07/30 02:52:01;;;;;;;;;;;;;;;;;;1890548;28;7803;-63
2023/07/30 02:52:58;;;;;;;;;;;;;;;;;;1882709;28;9098;-63
2023/07/30 02:53:58;;;;;;;;;;;;;;;;;;1882548;28;7159;-63
2023/07/30 02:54:56;;;;;;;;;;;;;;;;;;1882761;28;8036;-63
2023/07/30 02:55:53;;;;;;;;;;;;;;;;;;1882712;28;7092;-63
2023/07/30 02:56:50;;;;;;;;;;;;;;;;;;1882557;28;7009;-62
2023/07/30 02:57:48;;;;;;;;;;;;;;;;;;1882858;28;7039;-63
2023/07/30 02:58:45;;;;;;;;;;;;;;;;;;1883523;28;7081;-63
2023/07/30 02:59:42;;;;;;;;;;;;;;;;;;1883083;28;7005;-63
2023/07/30 03:00:40;;;;;;;;;;;;;;;;;;1881960;28;7372;-63
2023/07/30 03:01:37;;;;;;;;;;;;;;;;;;1882974;28;7014;-63
2023/07/30 03:02:35;;;;;;;;;;;;;;;;;;1882215;28;7013;-63
2023/07/30 03:03:33;;;;;;;;;;;;;;;;;;1886360;28;7097;-63
2023/07/30 03:04:31;;;;;;;;;;;;;;;;;;1889513;28;7014;-63
2023/07/30 03:05:28;;;;;;;;;;;;;;;;;;1885715;28;7100;-63
2023/07/30 03:06:26;;;;;;;;;;;;;;;;;;1882793;28;7103;-62
2023/07/30 03:07:23;;;;;;;;;;;;;;;;;;1882577;28;8106;-63
2023/07/30 03:08:20;;;;;;;;;;;;;;;;;;1890096;28;7108;-63
2023/07/30 03:09:18;;;;;;;;;;;;;;;;;;1889363;28;7013;-63
2023/07/30 03:10:15;;;;;;;;;;;;;;;;;;1890002;28;8064;-63
2023/07/30 03:11:13;;;;;;;;;;;;;;;;;;1889949;28;7050;-63
2023/07/30 03:12:10;;;;;;;;;;;;;;;;;;1891272;28;8041;-63
2023/07/30 03:13:08;;;;;;;;;;;;;;;;;;1883140;28;7215;-63
2023/07/30 03:14:05;;;;;;;;;;;;;;;;;;1883002;28;7133;-62
2023/07/30 03:15:03;;;;;;;;;;;;;;;;;;1882708;28;7010;-63
2023/07/30 03:16:00;;;;;;;;;;;;;;;;;;1882798;28;7078;-63
2023/07/30 03:16:58;;;;;;;;;;;;;;;;;;1883040;28;7109;-63
2023/07/30 03:17:55;;;;;;;;;;;;;;;;;;1880723;28;9101;-63
2023/07/30 03:18:53;;;;;;;;;;;;;;;;;;1882227;28;7051;-63
2023/07/30 03:19:50;;;;;;;;;;;;;;;;;;1885615;28;8080;-63
2023/07/30 03:20:47;;;;;;;;;;;;;;;;;;1890324;28;7054;-63
2023/07/30 03:21:45;;;;;;;;;;;;;;;;;;1885248;28;7045;-63
2023/07/30 03:22:42;;;;;;;;;;;;;;;;;;1889800;28;8027;-63
2023/07/30 03:23:40;;;;;;;;;;;;;;;;;;1889904;28;7014;-63
2023/07/30 03:24:38;;;;;;;;;;;;;;;;;;1889862;28;7212;-63
2023/07/30 03:25:35;;;;;;;;;;;;;;;;;;1888296;28;7131;-63
2023/07/30 03:26:32;;;;;;;;;;;;;;;;;;1885068;28;7144;-62
2023/07/30 03:27:30;;;;;;;;;;;;;;;;;;1889712;28;7120;-63
2023/07/30 03:28:27;;;;;;;;;;;;;;;;;;1889958;28;7046;-63
2023/07/30 03:29:25;;;;;;;;;;;;;;;;;;1890378;28;7021;-63
2023/07/30 03:30:22;;;;;;;;;;;;;;;;;;1882638;28;8095;-62
2023/07/30 03:31:20;;;;;;;;;;;;;;;;;;1878787;28;7043;-63
2023/07/30 03:32:17;;;;;;;;;;;;;;;;;;1881830;28;7093;-63
2023/07/30 03:33:14;;;;;;;;;;;;;;;;;;1880169;28;8001;-63
2023/07/30 03:34:12;;;;;;;;;;;;;;;;;;1882703;28;9068;-63
2023/07/30 03:35:09;;;;;;;;;;;;;;;;;;1880322;28;8993;-63
2023/07/30 03:36:06;;;;;;;;;;;;;;;;;;1882671;28;7042;-63
2023/07/30 03:37:04;;;;;;;;;;;;;;;;;;1890242;28;7129;-63
2023/07/30 03:38:01;;;;;;;;;;;;;;;;;;1883038;28;7120;-63
2023/07/30 03:38:59;;;;;;;;;;;;;;;;;;1883150;28;8060;-63
2023/07/30 03:39:56;;;;;;;;;;;;;;;;;;1882764;28;8736;-63
2023/07/30 03:40:53;;;;;;;;;;;;;;;;;;1882719;28;7117;-63
2023/07/30 03:41:51;;;;;;;;;;;;;;;;;;1882773;28;7104;-63
2023/07/30 03:42:49;;;;;;;;;;;;;;;;;;1882169;28;7060;-63
2023/07/30 03:43:46;;;;;;;;;;;;;;;;;;1882785;28;7192;-63
2023/07/30 03:44:44;;;;;;;;;;;;;;;;;;1884141;28;7116;-63
2023/07/30 03:45:41;;;;;;;;;;;;;;;;;;1883070;28;7148;-63
2023/07/30 03:46:38;;;;;;;;;;;;;;;;;;1883112;28;7036;-63
2023/07/30 03:47:36;;;;;;;;;;;;;;;;;;1886073;28;8106;-63
2023/07/30 03:48:33;;;;;;;;;;;;;;;;;;1882636;28;7368;-63
2023/07/30 03:49:31;;;;;;;;;;;;;;;;;;1882259;28;7096;-63
2023/07/30 03:50:28;;;;;;;;;;;;;;;;;;1882597;28;7013;-63
2023/07/30 03:51:25;;;;;;;;;;;;;;;;;;1886494;28;7009;-63
2023/07/30 03:52:23;;;;;;;;;;;;;;;;;;1890160;28;7055;-63
2023/07/30 03:53:20;;;;;;;;;;;;;;;;;;1886056;28;8055;-63
2023/07/30 03:54:18;;;;;;;;;;;;;;;;;;1881821;28;7021;-63
2023/07/30 03:55:15;;;;;;;;;;;;;;;;;;1884015;28;7013;-63
2023/07/30 03:56:13;;;;;;;;;;;;;;;;;;1882822;28;7033;-63
2023/07/30 03:57:10;;;;;;;;;;;;;;;;;;1882267;28;7014;-63
2023/07/30 03:58:07;;;;;;;;;;;;;;;;;;1882325;28;8075;-63
2023/07/30 03:59:05;;;;;;;;;;;;;;;;;;1884897;28;7100;-63
2023/07/30 04:00:03;;;;;;;;;;;;;;;;;;1887747;28;7082;-63
2023/07/30 04:01:01;;;;;;;;;;;;;;;;;;1882176;28;7959;-63
2023/07/30 04:01:59;;;;;;;;;;;;;;;;;;1887702;28;8117;-63
2023/07/30 04:02:56;;;;;;;;;;;;;;;;;;1889874;28;7037;-63
2023/07/30 04:03:54;;;;;;;;;;;;;;;;;;1882437;28;7009;-63
2023/07/30 04:04:51;;;;;;;;;;;;;;;;;;1881655;28;7013;-63
2023/07/30 04:05:49;;;;;;;;;;;;;;;;;;1885923;28;7029;-62
2023/07/30 04:06:46;;;;;;;;;;;;;;;;;;1890376;28;7108;-63
2023/07/30 04:07:43;;;;;;;;;;;;;;;;;;1889838;28;8035;-63
2023/07/30 04:08:41;;;;;;;;;;;;;;;;;;1889653;28;7211;-63
2023/07/30 04:09:38;;;;;;;;;;;;;;;;;;1885003;28;7093;-63
2023/07/30 04:10:36;;;;;;;;;;;;;;;;;;1882226;28;7013;-63
2023/07/30 04:11:33;;;;;;;;;;;;;;;;;;1882513;28;7278;-63
2023/07/30 04:12:33;;;;;;;;;;;;;;;;;;1882441;28;7317;-63
2023/07/30 04:13:31;;;;;;;;;;;;;;;;;;1883037;28;8056;-63
2023/07/30 04:14:28;;;;;;;;;;;;;;;;;;1882780;28;7165;-63
2023/07/30 04:15:25;;;;;;;;;;;;;;;;;;1882802;28;7021;-63
2023/07/30 04:16:23;;;;;;;;;;;;;;;;;;1889594;28;7018;-63
2023/07/30 04:17:20;;;;;;;;;;;;;;;;;;1882922;28;7009;-63
2023/07/30 04:18:19;;;;;;;;;;;;;;;;;;1880860;28;7308;-62
2023/07/30 04:19:16;;;;;;;;;;;;;;;;;;1882323;28;7048;-63
2023/07/30 04:20:14;;;;;;;;;;;;;;;;;;1888450;28;7077;-63
2023/07/30 04:21:13;;;;;;;;;;;;;;;;;;1890064;28;7204;-63
2023/07/30 04:22:11;;;;;;;;;;;;;;;;;;1889404;28;8040;-63
2023/07/30 04:23:08;;;;;;;;;;;;;;;;;;1890075;28;7033;-63
2023/07/30 04:24:05;;;;;;;;;;;;;;;;;;1889370;28;7458;-63
2023/07/30 04:25:03;;;;;;;;;;;;;;;;;;1889486;28;7123;-63
2023/07/30 04:26:01;;;;;;;;;;;;;;;;;;1889681;28;7415;-63
2023/07/30 04:27:00;;;;;;;;;;;;;;;;;;1890843;28;7058;-63
2023/07/30 04:27:57;;;;;;;;;;;;;;;;;;1890225;28;8087;-63
2023/07/30 04:28:55;;;;;;;;;;;;;;;;;;1885727;28;8115;-63
2023/07/30 04:29:52;;;;;;;;;;;;;;;;;;1880678;28;7050;-63
2023/07/30 04:30:50;;;;;;;;;;;;;;;;;;1882333;28;7084;-63
2023/07/30 04:31:47;;;;;;;;;;;;;;;;;;1882624;28;8039;-63
2023/07/30 04:32:45;;;;;;;;;;;;;;;;;;1882106;28;7140;-63
2023/07/30 04:33:42;;;;;;;;;;;;;;;;;;1882673;28;7046;-63
2023/07/30 04:34:39;;;;;;;;;;;;;;;;;;1882370;28;8055;-63
2023/07/30 04:35:37;;;;;;;;;;;;;;;;;;1882411;28;7110;-63
2023/07/30 04:36:34;;;;;;;;;;;;;;;;;;1882099;28;7050;-63
2023/07/30 04:37:32;;;;;;;;;;;;;;;;;;1882380;28;7113;-63
2023/07/30 04:38:29;;;;;;;;;;;;;;;;;;1881060;28;7105;-63
2023/07/30 04:39:27;;;;;;;;;;;;;;;;;;1882465;28;7349;-63
2023/07/30 04:40:24;;;;;;;;;;;;;;;;;;1882804;28;7014;-63
2023/07/30 04:41:21;;;;;;;;;;;;;;;;;;1882419;28;7043;-63
2023/07/30 04:42:19;;;;;;;;;;;;;;;;;;1882379;28;8098;-63
2023/07/30 04:43:16;;;;;;;;;;;;;;;;;;1882218;28;7124;-63
2023/07/30 04:44:14;;;;;;;;;;;;;;;;;;1882700;28;7025;-64
2023/07/30 04:45:11;;;;;;;;;;;;;;;;;;1887951;28;7093;-63
2023/07/30 04:46:08;;;;;;;;;;;;;;;;;;1881191;28;7017;-63
2023/07/30 04:47:06;;;;;;;;;;;;;;;;;;1883907;28;8053;-63
2023/07/30 04:48:03;;;;;;;;;;;;;;;;;;1878568;28;7021;-63
2023/07/30 04:49:03;;;;;;;;;;;;;;;;;;1882112;28;8386;-64
2023/07/30 04:50:00;;;;;;;;;;;;;;;;;;1881755;28;7006;-63
2023/07/30 04:50:57;;;;;;;;;;;;;;;;;;1881608;28;7130;-63
2023/07/30 04:51:55;;;;;;;;;;;;;;;;;;1881789;28;8017;-63
2023/07/30 04:52:52;;;;;;;;;;;;;;;;;;1882620;28;7147;-63
2023/07/30 04:53:49;;;;;;;;;;;;;;;;;;1882489;28;8052;-63
2023/07/30 04:54:47;;;;;;;;;;;;;;;;;;1882343;28;7101;-63
2023/07/30 04:55:44;;;;;;;;;;;;;;;;;;1881515;28;7017;-63
2023/07/30 04:56:42;;;;;;;;;;;;;;;;;;1881970;28;8001;-63
2023/07/30 04:57:39;;;;;;;;;;;;;;;;;;1882428;28;7417;-63
2023/07/30 04:58:37;;;;;;;;;;;;;;;;;;1882256;28;7269;-61
2023/07/30 04:59:34;;;;;;;;;;;;;;;;;;1887512;28;7108;-63
2023/07/30 05:00:31;;;;;;;;;;;;;;;;;;1887317;28;7006;-63
2023/07/30 05:01:29;;;;;;;;;;;;;;;;;;1884044;28;7009;-63
2023/07/30 05:02:26;;;;;;;;;;;;;;;;;;1889290;28;7109;-63
2023/07/30 05:03:24;;;;;;;;;;;;;;;;;;1886046;28;8014;-64
2023/07/30 05:04:22;;;;;;;;;;;;;;;;;;1879904;28;7009;-63
2023/07/30 05:05:19;;;;;;;;;;;;;;;;;;1880576;28;7026;-64
2023/07/30 05:06:16;;;;;;;;;;;;;;;;;;1882399;28;7042;-61
2023/07/30 05:07:14;;;;;;;;;;;;;;;;;;1882402;28;8100;-61
2023/07/30 05:08:11;;;;;;;;;;;;;;;;;;1881929;28;7049;-61
2023/07/30 05:09:08;;;;;;;;;;;;;;;;;;1881744;28;8047;-61
2023/07/30 05:10:09;;;;;;;;;;;;;;;;;;1881683;28;7010;-61
2023/07/30 05:11:07;;;;;;;;;;;;;;;;;;1881839;28;7105;-63
2023/07/30 05:12:05;;;;;;;;;;;;;;;;;;1881580;28;7017;-63
2023/07/30 05:13:02;;;;;;;;;;;;;;;;;;1882274;28;7009;-63
2023/07/30 05:14:00;;;;;;;;;;;;;;;;;;1880673;28;8076;-64
2023/07/30 05:14:57;;;;;;;;;;;;;;;;;;1882768;28;7009;-63
2023/07/30 05:15:54;;;;;;;;;;;;;;;;;;1881774;28;7029;-63
2023/07/30 05:16:52;;;;;;;;;;;;;;;;;;1885624;28;7210;-61
2023/07/30 05:17:49;;;;;;;;;;;;;;;;;;1886091;28;8043;-63
2023/07/30 05:18:47;;;;;;;;;;;;;;;;;;1882470;28;7991;-61
2023/07/30 05:19:44;;;;;;;;;;;;;;;;;;1885142;28;7106;-60
2023/07/30 05:20:41;;;;;;;;;;;;;;;;;;1890728;28;7058;-61
2023/07/30 05:21:39;;;;;;;;;;;;;;;;;;1886975;28;7113;-61
2023/07/30 05:22:36;;;;;;;;;;;;;;;;;;1884051;28;7029;-62
2023/07/30 05:23:34;;;;;;;;;;;;;;;;;;1882960;28;7021;-61
2023/07/30 05:24:31;;;;;;;;;;;;;;;;;;1883324;28;7112;-62
2023/07/30 05:25:29;;;;;;;;;;;;;;;;;;1883412;28;7112;-62
2023/07/30 05:26:27;;;;;;;;;;;;;;;;;;1883466;28;7137;-62
2023/07/30 05:27:24;;;;;;;;;;;;;;;;;;1883530;28;7328;-62
2023/07/30 05:28:21;;;;;;;;;;;;;;;;;;1890039;28;7009;-62
2023/07/30 05:29:19;;;;;;;;;;;;;;;;;;1890766;28;7013;-61
2023/07/30 05:30:16;;;;;;;;;;;;;;;;;;1888862;28;7092;-62
2023/07/30 05:31:13;;;;;;;;;;;;;;;;;;1883293;28;7328;-62
2023/07/30 05:32:12;;;;;;;;;;;;;;;;;;1885938;28;7120;-62
2023/07/30 05:33:09;;;;;;;;;;;;;;;;;;1891205;28;7017;-61
2023/07/30 05:34:08;;;;;;;;;;;;;;;;;;1882460;28;8689;-61
2023/07/30 05:35:06;;;;;;;;;;;;;;;;;;1888172;28;8014;-62
2023/07/30 05:36:03;;;;;;;;;;;;;;;;;;1885412;28;7009;-61
2023/07/30 05:37:01;;;;;;;;;;;;;;;;;;1883037;28;8273;-61
2023/07/30 05:37:58;;;;;;;;;;;;;;;;;;1883518;28;7082;-62
2023/07/30 05:38:55;;;;;;;;;;;;;;;;;;1883893;28;8091;-61
2023/07/30 05:39:53;;;;;;;;;;;;;;;;;;1883697;28;8977;-61
2023/07/30 05:40:50;;;;;;;;;;;;;;;;;;1883203;28;7127;-61
2023/07/30 05:41:48;;;;;;;;;;;;;;;;;;1885688;28;7093;-61
2023/07/30 05:42:45;;;;;;;;;;;;;;;;;;1884687;28;7088;-61
2023/07/30 05:43:42;;;;;;;;;;;;;;;;;;1883759;28;7199;-61
2023/07/30 05:44:40;;;;;;;;;;;;;;;;;;1883922;28;7062;-62
2023/07/30 05:45:37;;;;;;;;;;;;;;;;;;1887383;28;7010;-62
2023/07/30 05:46:34;;;;;;;;;;;;;;;;;;1890848;28;8008;-62
2023/07/30 05:47:32;;;;;;;;;;;;;;;;;;1888260;28;8873;-61
2023/07/30 05:48:29;;;;;;;;;;;;;;;;;;1885598;28;7092;-62
2023/07/30 05:49:27;;;;;;;;;;;;;;;;;;1883648;28;7014;-62
2023/07/30 05:50:24;;;;;;;;;;;;;;;;;;1883193;28;7093;-61
2023/07/30 05:51:21;;;;;;;;;;;;;;;;;;1883020;28;7997;-61
2023/07/30 05:52:19;;;;;;;;;;;;;;;;;;1889429;28;7093;-61
2023/07/30 05:53:16;;;;;;;;;;;;;;;;;;1890770;28;7029;-62
2023/07/30 05:54:14;;;;;;;;;;;;;;;;;;1890716;28;7548;-61
2023/07/30 05:55:11;;;;;;;;;;;;;;;;;;1891173;28;7030;-61
2023/07/30 05:56:08;;;;;;;;;;;;;;;;;;1884181;28;8031;-62
2023/07/30 05:57:06;;;;;;;;;;;;;;;;;;1883412;28;7013;-61
2023/07/30 05:58:03;;;;;;;;;;;;;;;;;;1887959;28;7013;-61
2023/07/30 05:59:01;;;;;;;;;;;;;;;;;;1886157;28;7037;-61
2023/07/30 05:59:58;;;;;;;;;;;;;;;;;;1882655;28;7042;-62
2023/07/30 06:00:56;;;;;;;;;;;;;;;;;;1890072;28;8368;-62
2023/07/30 06:01:55;;;;;;;;;;;;;;;;;;1890981;28;8052;-61
2023/07/30 06:02:53;;;;;;;;;;;;;;;;;;1890672;28;8183;-62
2023/07/30 06:03:50;;;;;;;;;;;;;;;;;;1890232;28;7156;-61
2023/07/30 06:04:48;;;;;;;;;;;;;;;;;;1880838;28;7298;-61
2023/07/30 06:05:46;;;;;;;;;;;;;;;;;;1882765;28;7152;-61
2023/07/30 06:06:43;;;;;;;;;;;;;;;;;;1883476;28;8192;-61
2023/07/30 06:07:40;;;;;;;;;;;;;;;;;;1883826;28;7055;-62
2023/07/30 06:08:38;;;;;;;;;;;;;;;;;;1890884;28;8115;-61
2023/07/30 06:09:35;;;;;;;;;;;;;;;;;;1887036;28;7155;-62
2023/07/30 06:10:36;;;;;;;;;;;;;;;;;;1882948;28;7021;-61
2023/07/30 06:11:33;;;;;;;;;;;;;;;;;;1883428;28;7328;-61
2023/07/30 06:12:31;;;;;;;;;;;;;;;;;;1886440;28;7309;-62
2023/07/30 06:13:29;;;;;;;;;;;;;;;;;;1885369;28;7006;-62
2023/07/30 06:14:27;;;;;;;;;;;;;;;;;;1879361;28;7013;-61
2023/07/30 06:15:27;;;;;;;;;;;;;;;;;;1879492;28;7338;-61
2023/07/30 06:16:25;;;;;;;;;;;;;;;;;;1878795;28;7017;-62
2023/07/30 06:17:22;;;;;;;;;;;;;;;;;;1879395;28;7104;-62
2023/07/30 06:18:20;;;;;;;;;;;;;;;;;;1878239;28;7198;-61
2023/07/30 06:19:17;;;;;;;;;;;;;;;;;;1884157;28;7050;-64
2023/07/30 06:20:15;;;;;;;;;;;;;;;;;;1881185;28;7046;-62
2023/07/30 06:21:12;;;;;;;;;;;;;;;;;;1878637;28;7017;-62
2023/07/30 06:22:10;;;;;;;;;;;;;;;;;;1883214;28;7009;-62
2023/07/30 06:23:07;;;;;;;;;;;;;;;;;;1882887;28;7046;-61
2023/07/30 06:24:05;;;;;;;;;;;;;;;;;;1886776;28;7101;-61
2023/07/30 06:25:02;;;;;;;;;;;;;;;;;;1888748;28;7129;-62
2023/07/30 06:26:00;;;;;;;;;;;;;;;;;;1889947;28;7117;-61
2023/07/30 06:26:57;;;;;;;;;;;;;;;;;;1883149;28;7098;-61
2023/07/30 06:27:57;;;;;;;;;;;;;;;;;;1882309;28;7997;-61
2023/07/30 06:28:54;;;;;;;;;;;;;;;;;;1883615;28;7013;-61
2023/07/30 06:29:52;;;;;;;;;;;;;;;;;;1883289;28;7991;-61
2023/07/30 06:30:49;;;;;;;;;;;;;;;;;;1887298;28;7350;-62
2023/07/30 06:31:47;;;;;;;;;;;;;;;;;;1890254;28;7013;-61
2023/07/30 06:32:44;;;;;;;;;;;;;;;;;;1887576;28;7009;-62
2023/07/30 06:33:42;;;;;;;;;;;;;;;;;;1879575;28;7116;-61
2023/07/30 06:34:39;;;;;;;;;;;;;;;;;;1885885;28;7092;-61
2023/07/30 06:35:36;;;;;;;;;;;;;;;;;;1890669;28;7013;-61
2023/07/30 06:36:34;;;;;;;;;;;;;;;;;;1890717;28;7013;-62
2023/07/30 06:37:32;;;;;;;;;;;;;;;;;;1890215;28;7088;-61
2023/07/30 06:38:30;;;;;;;;;;;;;;;;;;1890446;28;7111;-61
2023/07/30 06:39:27;;;;;;;;;;;;;;;;;;1891031;28;7041;-61
2023/07/30 06:40:24;;;;;;;;;;;;;;;;;;1890126;28;7349;-61
2023/07/30 06:41:22;;;;;;;;;;;;;;;;;;1890208;28;7284;-62